sensor_id;sensor_type;location;lat;lon;timestamp;P1;durP1;ratioP1;P2;durP2;ratioP2
47103;SDS011;32853;52.164;5.400;2023-01-20T00:01:40;3.75;;;2.05;;
47103;SDS011;32853;52.164;5.400;2023-01-20T00:04:09;4.78;;;2.17;;
47103;SDS011;32853;52.164;5.400;2023-01-20T00:06:35;3.20;;;1.70;;
47103;SDS011;32853;52.164;5.400;2023-01-20T00:09:01;3.70;;;1.95;;
47103;SDS011;32853;52.164;5.400;2023-01-20T00:11:28;4.15;;;2.13;;
47103;SDS011;32853;52.164;5.400;2023-01-20T00:14:03;3.60;;;2.28;;
47103;SDS011;32853;52.164;5.400;2023-01-20T00:16:28;3.38;;;2.25;;
47103;SDS011;32853;52.164;5.400;2023-01-20T00:18:55;1.45;;;1.23;;
47103;SDS011;32853;52.164;5.400;2023-01-20T00:21:21;3.83;;;1.63;;
47103;SDS011;32853;52.164;5.400;2023-01-20T00:23:47;4.78;;;2.78;;
47103;SDS011;32853;52.164;5.400;2023-01-20T00:26:15;4.82;;;2.83;;
47103;SDS011;32853;52.164;5.400;2023-01-20T00:28:54;4.95;;;2.67;;
47103;SDS011;32853;52.164;5.400;2023-01-20T00:31:25;3.88;;;2.60;;
47103;SDS011;32853;52.164;5.400;2023-01-20T00:37:12;4.03;;;1.73;;
47103;SDS011;32853;52.164;5.400;2023-01-20T00:39:37;2.17;;;1.63;;
47103;SDS011;32853;52.164;5.400;2023-01-20T00:42:03;9.45;;;3.78;;
47103;SDS011;32853;52.164;5.400;2023-01-20T00:44:39;6.82;;;3.95;;
47103;SDS011;32853;52.164;5.400;2023-01-20T00:47:05;6.00;;;3.70;;
47103;SDS011;32853;52.164;5.400;2023-01-20T00:49:32;7.97;;;4.57;;
47103;SDS011;32853;52.164;5.400;2023-01-20T00:54:27;11.95;;;5.65;;
47103;SDS011;32853;52.164;5.400;2023-01-20T00:56:53;13.05;;;6.25;;
47103;SDS011;32853;52.164;5.400;2023-01-20T00:59:18;10.13;;;5.07;;
47103;SDS011;32853;52.164;5.400;2023-01-20T01:01:43;9.45;;;5.45;;
47103;SDS011;32853;52.164;5.400;2023-01-20T01:04:10;9.20;;;4.95;;
47103;SDS011;32853;52.164;5.400;2023-01-20T01:06:35;10.75;;;5.55;;
47103;SDS011;32853;52.164;5.400;2023-01-20T01:09:00;12.18;;;5.75;;
47103;SDS011;32853;52.164;5.400;2023-01-20T01:11:26;10.05;;;5.50;;
47103;SDS011;32853;52.164;5.400;2023-01-20T01:13:53;11.90;;;5.57;;
47103;SDS011;32853;52.164;5.400;2023-01-20T01:16:20;11.07;;;5.40;;
47103;SDS011;32853;52.164;5.400;2023-01-20T01:18:45;12.75;;;5.65;;
47103;SDS011;32853;52.164;5.400;2023-01-20T01:21:13;9.65;;;5.85;;
47103;SDS011;32853;52.164;5.400;2023-01-20T01:23:41;11.95;;;6.68;;
47103;SDS011;32853;52.164;5.400;2023-01-20T01:28:48;12.57;;;6.32;;
47103;SDS011;32853;52.164;5.400;2023-01-20T01:31:16;16.88;;;6.82;;
47103;SDS011;32853;52.164;5.400;2023-01-20T01:33:43;12.15;;;7.28;;
47103;SDS011;32853;52.164;5.400;2023-01-20T01:36:11;11.82;;;6.82;;
47103;SDS011;32853;52.164;5.400;2023-01-20T01:38:39;16.15;;;7.32;;
47103;SDS011;32853;52.164;5.400;2023-01-20T01:41:08;11.40;;;6.40;;
47103;SDS011;32853;52.164;5.400;2023-01-20T01:46:23;16.83;;;8.18;;
47103;SDS011;32853;52.164;5.400;2023-01-20T01:48:53;15.50;;;9.15;;
47103;SDS011;32853;52.164;5.400;2023-01-20T01:51:22;16.58;;;7.53;;
47103;SDS011;32853;52.164;5.400;2023-01-20T01:56:21;14.95;;;6.22;;
47103;SDS011;32853;52.164;5.400;2023-01-20T01:58:50;16.33;;;7.93;;
47103;SDS011;32853;52.164;5.400;2023-01-20T02:01:18;18.42;;;8.73;;
47103;SDS011;32853;52.164;5.400;2023-01-20T02:03:58;17.02;;;7.80;;
47103;SDS011;32853;52.164;5.400;2023-01-20T02:08:59;16.93;;;8.10;;
47103;SDS011;32853;52.164;5.400;2023-01-20T02:11:29;16.63;;;7.70;;
47103;SDS011;32853;52.164;5.400;2023-01-20T02:28:27;18.30;;;8.57;;
47103;SDS011;32853;52.164;5.400;2023-01-20T02:34:10;14.93;;;7.38;;
47103;SDS011;32853;52.164;5.400;2023-01-20T02:36:40;29.63;;;10.05;;
47103;SDS011;32853;52.164;5.400;2023-01-20T02:41:51;20.80;;;10.32;;
47103;SDS011;32853;52.164;5.400;2023-01-20T02:52:56;24.70;;;11.57;;
47103;SDS011;32853;52.164;5.400;2023-01-20T03:01:13;20.88;;;9.73;;
47103;SDS011;32853;52.164;5.400;2023-01-20T03:03:44;25.70;;;11.77;;
47103;SDS011;32853;52.164;5.400;2023-01-20T03:06:19;25.85;;;10.50;;
47103;SDS011;32853;52.164;5.400;2023-01-20T03:08:49;22.90;;;10.43;;
47103;SDS011;32853;52.164;5.400;2023-01-20T03:11:17;27.90;;;10.20;;
47103;SDS011;32853;52.164;5.400;2023-01-20T03:13:45;26.67;;;11.05;;
47103;SDS011;32853;52.164;5.400;2023-01-20T03:16:27;33.80;;;12.48;;
47103;SDS011;32853;52.164;5.400;2023-01-20T03:18:53;35.15;;;12.35;;
47103;SDS011;32853;52.164;5.400;2023-01-20T03:21:20;29.70;;;10.75;;
47103;SDS011;32853;52.164;5.400;2023-01-20T03:24:02;31.08;;;12.18;;
47103;SDS011;32853;52.164;5.400;2023-01-20T03:26:33;33.05;;;12.60;;
47103;SDS011;32853;52.164;5.400;2023-01-20T03:29:03;33.03;;;11.75;;
47103;SDS011;32853;52.164;5.400;2023-01-20T03:31:34;30.30;;;11.43;;
47103;SDS011;32853;52.164;5.400;2023-01-20T03:34:11;27.33;;;12.15;;
47103;SDS011;32853;52.164;5.400;2023-01-20T03:36:41;29.67;;;12.60;;
47103;SDS011;32853;52.164;5.400;2023-01-20T03:39:08;35.08;;;12.95;;
47103;SDS011;32853;52.164;5.400;2023-01-20T03:56:42;33.28;;;12.85;;
47103;SDS011;32853;52.164;5.400;2023-01-20T03:59:16;38.92;;;13.35;;
47103;SDS011;32853;52.164;5.400;2023-01-20T04:01:44;36.55;;;14.73;;
47103;SDS011;32853;52.164;5.400;2023-01-20T04:04:13;43.25;;;14.43;;
47103;SDS011;32853;52.164;5.400;2023-01-20T04:06:43;37.78;;;14.73;;
47103;SDS011;32853;52.164;5.400;2023-01-20T04:09:16;43.17;;;14.20;;
47103;SDS011;32853;52.164;5.400;2023-01-20T04:11:50;29.40;;;12.30;;
47103;SDS011;32853;52.164;5.400;2023-01-20T04:14:16;39.53;;;12.48;;
47103;SDS011;32853;52.164;5.400;2023-01-20T04:16:42;35.85;;;14.40;;
47103;SDS011;32853;52.164;5.400;2023-01-20T04:19:14;35.58;;;13.65;;
47103;SDS011;32853;52.164;5.400;2023-01-20T04:21:42;42.92;;;14.10;;
47103;SDS011;32853;52.164;5.400;2023-01-20T04:27:08;39.78;;;15.35;;
47103;SDS011;32853;52.164;5.400;2023-01-20T04:29:33;54.67;;;14.52;;
47103;SDS011;32853;52.164;5.400;2023-01-20T04:31:59;36.05;;;13.10;;
47103;SDS011;32853;52.164;5.400;2023-01-20T04:34:25;31.92;;;10.30;;
47103;SDS011;32853;52.164;5.400;2023-01-20T04:36:51;43.38;;;13.75;;
47103;SDS011;32853;52.164;5.400;2023-01-20T04:39:16;45.20;;;14.82;;
47103;SDS011;32853;52.164;5.400;2023-01-20T04:41:47;40.13;;;16.27;;
47103;SDS011;32853;52.164;5.400;2023-01-20T04:44:13;34.78;;;12.60;;
47103;SDS011;32853;52.164;5.400;2023-01-20T04:46:38;45.50;;;15.85;;
47103;SDS011;32853;52.164;5.400;2023-01-20T04:51:58;30.25;;;11.88;;
47103;SDS011;32853;52.164;5.400;2023-01-20T04:54:24;37.80;;;12.63;;
47103;SDS011;32853;52.164;5.400;2023-01-20T04:56:49;42.33;;;13.63;;
47103;SDS011;32853;52.164;5.400;2023-01-20T04:59:15;44.97;;;14.43;;
47103;SDS011;32853;52.164;5.400;2023-01-20T05:01:40;32.53;;;12.82;;
47103;SDS011;32853;52.164;5.400;2023-01-20T05:04:06;43.67;;;15.88;;
47103;SDS011;32853;52.164;5.400;2023-01-20T05:06:34;40.85;;;10.18;;
47103;SDS011;32853;52.164;5.400;2023-01-20T05:08:59;29.92;;;10.30;;
47103;SDS011;32853;52.164;5.400;2023-01-20T05:11:25;41.70;;;14.10;;
47103;SDS011;32853;52.164;5.400;2023-01-20T05:13:50;44.03;;;13.57;;
47103;SDS011;32853;52.164;5.400;2023-01-20T05:16:16;41.50;;;13.52;;
47103;SDS011;32853;52.164;5.400;2023-01-20T05:18:47;41.55;;;13.95;;
47103;SDS011;32853;52.164;5.400;2023-01-20T05:21:26;37.72;;;14.13;;
47103;SDS011;32853;52.164;5.400;2023-01-20T05:23:54;27.50;;;10.88;;
47103;SDS011;32853;52.164;5.400;2023-01-20T05:26:28;29.25;;;10.90;;
47103;SDS011;32853;52.164;5.400;2023-01-20T05:28:53;50.58;;;14.88;;
47103;SDS011;32853;52.164;5.400;2023-01-20T05:31:21;21.50;;;9.32;;
47103;SDS011;32853;52.164;5.400;2023-01-20T05:33:46;39.00;;;15.68;;
47103;SDS011;32853;52.164;5.400;2023-01-20T05:36:11;38.30;;;13.23;;
47103;SDS011;32853;52.164;5.400;2023-01-20T05:38:53;43.05;;;14.25;;
47103;SDS011;32853;52.164;5.400;2023-01-20T05:41:23;46.53;;;14.27;;
47103;SDS011;32853;52.164;5.400;2023-01-20T05:46:39;39.83;;;14.38;;
47103;SDS011;32853;52.164;5.400;2023-01-20T05:49:05;59.55;;;11.90;;
47103;SDS011;32853;52.164;5.400;2023-01-20T05:51:30;44.45;;;13.40;;
47103;SDS011;32853;52.164;5.400;2023-01-20T05:54:02;48.97;;;15.35;;
47103;SDS011;32853;52.164;5.400;2023-01-20T05:56:32;45.30;;;14.65;;
47103;SDS011;32853;52.164;5.400;2023-01-20T05:58:57;43.20;;;11.32;;
47103;SDS011;32853;52.164;5.400;2023-01-20T06:01:23;33.95;;;12.57;;
47103;SDS011;32853;52.164;5.400;2023-01-20T06:03:48;50.25;;;17.75;;
47103;SDS011;32853;52.164;5.400;2023-01-20T06:06:19;57.95;;;18.38;;
47103;SDS011;32853;52.164;5.400;2023-01-20T06:08:52;50.92;;;15.23;;
47103;SDS011;32853;52.164;5.400;2023-01-20T06:11:18;52.17;;;17.00;;
47103;SDS011;32853;52.164;5.400;2023-01-20T06:13:48;60.13;;;19.17;;
47103;SDS011;32853;52.164;5.400;2023-01-20T06:16:17;39.58;;;13.73;;
47103;SDS011;32853;52.164;5.400;2023-01-20T06:18:59;46.83;;;17.45;;
47103;SDS011;32853;52.164;5.400;2023-01-20T06:21:39;61.33;;;19.38;;
47103;SDS011;32853;52.164;5.400;2023-01-20T06:29:23;51.67;;;16.90;;
47103;SDS011;32853;52.164;5.400;2023-01-20T06:31:52;50.88;;;17.45;;
47103;SDS011;32853;52.164;5.400;2023-01-20T06:34:18;51.13;;;15.77;;
47103;SDS011;32853;52.164;5.400;2023-01-20T06:36:44;59.72;;;19.02;;
47103;SDS011;32853;52.164;5.400;2023-01-20T06:39:09;51.20;;;18.48;;
47103;SDS011;32853;52.164;5.400;2023-01-20T06:41:34;61.47;;;17.30;;
47103;SDS011;32853;52.164;5.400;2023-01-20T06:44:00;43.30;;;15.63;;
47103;SDS011;32853;52.164;5.400;2023-01-20T06:46:25;44.47;;;15.18;;
47103;SDS011;32853;52.164;5.400;2023-01-20T06:48:51;45.28;;;17.23;;
47103;SDS011;32853;52.164;5.400;2023-01-20T06:51:17;50.60;;;15.98;;
47103;SDS011;32853;52.164;5.400;2023-01-20T06:53:44;53.78;;;18.38;;
47103;SDS011;32853;52.164;5.400;2023-01-20T06:56:11;37.03;;;14.10;;
47103;SDS011;32853;52.164;5.400;2023-01-20T06:58:37;41.63;;;13.25;;
47103;SDS011;32853;52.164;5.400;2023-01-20T07:01:06;40.17;;;14.15;;
47103;SDS011;32853;52.164;5.400;2023-01-20T07:03:34;55.17;;;15.90;;
47103;SDS011;32853;52.164;5.400;2023-01-20T07:06:36;47.88;;;14.52;;
47103;SDS011;32853;52.164;5.400;2023-01-20T07:09:02;48.33;;;15.40;;
47103;SDS011;32853;52.164;5.400;2023-01-20T07:11:32;42.88;;;14.60;;
47103;SDS011;32853;52.164;5.400;2023-01-20T07:14:01;49.50;;;12.90;;
47103;SDS011;32853;52.164;5.400;2023-01-20T07:16:28;39.17;;;13.27;;
47103;SDS011;32853;52.164;5.400;2023-01-20T07:18:53;38.40;;;11.02;;
47103;SDS011;32853;52.164;5.400;2023-01-20T07:21:19;31.53;;;10.97;;
47103;SDS011;32853;52.164;5.400;2023-01-20T07:23:46;42.88;;;13.65;;
47103;SDS011;32853;52.164;5.400;2023-01-20T07:26:13;38.13;;;15.15;;
47103;SDS011;32853;52.164;5.400;2023-01-20T07:28:50;41.00;;;13.88;;
47103;SDS011;32853;52.164;5.400;2023-01-20T07:31:17;27.20;;;11.23;;
47103;SDS011;32853;52.164;5.400;2023-01-20T07:33:44;42.08;;;12.15;;
47103;SDS011;32853;52.164;5.400;2023-01-20T07:36:13;13.88;;;5.35;;
47103;SDS011;32853;52.164;5.400;2023-01-20T07:38:39;24.83;;;11.00;;
47103;SDS011;32853;52.164;5.400;2023-01-20T07:41:05;35.08;;;12.80;;
47103;SDS011;32853;52.164;5.400;2023-01-20T07:43:34;34.88;;;13.57;;
47103;SDS011;32853;52.164;5.400;2023-01-20T07:46:01;45.28;;;13.50;;
47103;SDS011;32853;52.164;5.400;2023-01-20T07:48:29;46.78;;;14.07;;
47103;SDS011;32853;52.164;5.400;2023-01-20T07:50:56;34.38;;;13.40;;
47103;SDS011;32853;52.164;5.400;2023-01-20T07:53:36;48.13;;;13.48;;
47103;SDS011;32853;52.164;5.400;2023-01-20T07:56:04;43.75;;;15.57;;
47103;SDS011;32853;52.164;5.400;2023-01-20T07:58:36;33.83;;;12.95;;
47103;SDS011;32853;52.164;5.400;2023-01-20T08:01:10;45.05;;;14.35;;
47103;SDS011;32853;52.164;5.400;2023-01-20T08:03:46;43.40;;;16.48;;
47103;SDS011;32853;52.164;5.400;2023-01-20T08:06:22;43.25;;;15.57;;
47103;SDS011;32853;52.164;5.400;2023-01-20T08:08:52;38.92;;;14.25;;
47103;SDS011;32853;52.164;5.400;2023-01-20T08:11:20;24.88;;;11.27;;
47103;SDS011;32853;52.164;5.400;2023-01-20T08:13:52;28.52;;;9.93;;
47103;SDS011;32853;52.164;5.400;2023-01-20T08:16:24;38.47;;;13.52;;
47103;SDS011;32853;52.164;5.400;2023-01-20T08:19:04;43.55;;;13.45;;
47103;SDS011;32853;52.164;5.400;2023-01-20T08:21:31;43.15;;;14.70;;
47103;SDS011;32853;52.164;5.400;2023-01-20T08:23:57;36.15;;;15.43;;
47103;SDS011;32853;52.164;5.400;2023-01-20T08:26:24;42.25;;;14.35;;
47103;SDS011;32853;52.164;5.400;2023-01-20T08:28:52;49.03;;;15.57;;
47103;SDS011;32853;52.164;5.400;2023-01-20T08:31:19;27.67;;;10.57;;
47103;SDS011;32853;52.164;5.400;2023-01-20T08:33:46;42.88;;;12.77;;
47103;SDS011;32853;52.164;5.400;2023-01-20T08:36:19;40.85;;;14.07;;
47103;SDS011;32853;52.164;5.400;2023-01-20T08:39:03;52.70;;;14.77;;
47103;SDS011;32853;52.164;5.400;2023-01-20T08:41:35;42.55;;;14.30;;
47103;SDS011;32853;52.164;5.400;2023-01-20T08:44:02;49.03;;;16.35;;
47103;SDS011;32853;52.164;5.400;2023-01-20T08:46:29;44.15;;;14.75;;
47103;SDS011;32853;52.164;5.400;2023-01-20T08:48:54;46.13;;;12.60;;
47103;SDS011;32853;52.164;5.400;2023-01-20T08:51:23;46.85;;;17.23;;
47103;SDS011;32853;52.164;5.400;2023-01-20T08:53:50;42.97;;;14.35;;
47103;SDS011;32853;52.164;5.400;2023-01-20T08:56:16;43.53;;;14.80;;
47103;SDS011;32853;52.164;5.400;2023-01-20T09:01:21;46.53;;;16.98;;
47103;SDS011;32853;52.164;5.400;2023-01-20T09:03:49;43.67;;;14.73;;
47103;SDS011;32853;52.164;5.400;2023-01-20T09:06:15;42.90;;;14.25;;
47103;SDS011;32853;52.164;5.400;2023-01-20T09:08:41;39.13;;;14.30;;
47103;SDS011;32853;52.164;5.400;2023-01-20T09:11:08;38.40;;;13.77;;
47103;SDS011;32853;52.164;5.400;2023-01-20T09:13:42;43.95;;;14.18;;
47103;SDS011;32853;52.164;5.400;2023-01-20T09:16:07;39.65;;;14.55;;
47103;SDS011;32853;52.164;5.400;2023-01-20T09:18:36;48.08;;;14.85;;
47103;SDS011;32853;52.164;5.400;2023-01-20T09:21:02;48.05;;;13.30;;
47103;SDS011;32853;52.164;5.400;2023-01-20T09:23:37;40.72;;;12.32;;
47103;SDS011;32853;52.164;5.400;2023-01-20T09:26:18;42.38;;;13.57;;
47103;SDS011;32853;52.164;5.400;2023-01-20T09:28:47;38.22;;;12.57;;
47103;SDS011;32853;52.164;5.400;2023-01-20T09:31:12;41.17;;;16.35;;
47103;SDS011;32853;52.164;5.400;2023-01-20T09:33:37;27.90;;;12.73;;
47103;SDS011;32853;52.164;5.400;2023-01-20T09:36:05;32.63;;;13.32;;
47103;SDS011;32853;52.164;5.400;2023-01-20T09:38:31;36.97;;;13.23;;
47103;SDS011;32853;52.164;5.400;2023-01-20T09:55:51;31.40;;;12.45;;
47103;SDS011;32853;52.164;5.400;2023-01-20T10:15:53;25.55;;;10.80;;
47103;SDS011;32853;52.164;5.400;2023-01-20T10:21:17;29.27;;;10.50;;
47103;SDS011;32853;52.164;5.400;2023-01-20T10:26:48;34.13;;;14.18;;
47103;SDS011;32853;52.164;5.400;2023-01-20T10:29:22;36.78;;;11.38;;
47103;SDS011;32853;52.164;5.400;2023-01-20T10:34:37;31.67;;;11.13;;
47103;SDS011;32853;52.164;5.400;2023-01-20T10:37:08;26.05;;;9.60;;
47103;SDS011;32853;52.164;5.400;2023-01-20T10:42:35;28.67;;;11.00;;
47103;SDS011;32853;52.164;5.400;2023-01-20T10:45:02;23.25;;;11.07;;
47103;SDS011;32853;52.164;5.400;2023-01-20T10:47:37;33.90;;;11.13;;
47103;SDS011;32853;52.164;5.400;2023-01-20T10:53:14;27.67;;;9.82;;
47103;SDS011;32853;52.164;5.400;2023-01-20T10:55:50;25.38;;;10.50;;
47103;SDS011;32853;52.164;5.400;2023-01-20T10:58:38;24.55;;;9.88;;
47103;SDS011;32853;52.164;5.400;2023-01-20T11:01:10;21.63;;;11.55;;
47103;SDS011;32853;52.164;5.400;2023-01-20T11:03:40;22.33;;;8.18;;
47103;SDS011;32853;52.164;5.400;2023-01-20T11:06:07;26.65;;;9.88;;
47103;SDS011;32853;52.164;5.400;2023-01-20T11:08:50;27.73;;;11.48;;
47103;SDS011;32853;52.164;5.400;2023-01-20T11:11:25;25.67;;;9.93;;
47103;SDS011;32853;52.164;5.400;2023-01-20T11:13:53;29.42;;;9.60;;
47103;SDS011;32853;52.164;5.400;2023-01-20T11:16:26;23.58;;;9.35;;
47103;SDS011;32853;52.164;5.400;2023-01-20T11:19:02;30.48;;;10.05;;
47103;SDS011;32853;52.164;5.400;2023-01-20T11:21:30;20.80;;;7.60;;
47103;SDS011;32853;52.164;5.400;2023-01-20T11:24:00;23.23;;;9.35;;
47103;SDS011;32853;52.164;5.400;2023-01-20T11:26:38;20.30;;;10.07;;
47103;SDS011;32853;52.164;5.400;2023-01-20T11:31:54;24.23;;;9.02;;
47103;SDS011;32853;52.164;5.400;2023-01-20T11:34:26;21.02;;;8.30;;
47103;SDS011;32853;52.164;5.400;2023-01-20T11:39:29;27.27;;;10.98;;
47103;SDS011;32853;52.164;5.400;2023-01-20T11:42:12;30.27;;;11.40;;
47103;SDS011;32853;52.164;5.400;2023-01-20T11:44:50;26.30;;;9.27;;
47103;SDS011;32853;52.164;5.400;2023-01-20T11:50:24;20.85;;;8.95;;
47103;SDS011;32853;52.164;5.400;2023-01-20T11:55:53;22.77;;;9.23;;
47103;SDS011;32853;52.164;5.400;2023-01-20T11:58:47;21.02;;;8.85;;
47103;SDS011;32853;52.164;5.400;2023-01-20T12:01:23;27.60;;;9.88;;
47103;SDS011;32853;52.164;5.400;2023-01-20T12:09:31;24.48;;;9.30;;
47103;SDS011;32853;52.164;5.400;2023-01-20T12:26:09;26.27;;;9.43;;
47103;SDS011;32853;52.164;5.400;2023-01-20T12:28:38;19.73;;;9.18;;
47103;SDS011;32853;52.164;5.400;2023-01-20T12:31:10;21.52;;;10.68;;
47103;SDS011;32853;52.164;5.400;2023-01-20T12:33:37;26.00;;;10.35;;
47103;SDS011;32853;52.164;5.400;2023-01-20T12:36:18;27.38;;;9.98;;
47103;SDS011;32853;52.164;5.400;2023-01-20T12:44:48;21.48;;;8.07;;
47103;SDS011;32853;52.164;5.400;2023-01-20T13:06:40;26.63;;;11.00;;
47103;SDS011;32853;52.164;5.400;2023-01-20T13:09:36;24.08;;;10.27;;
47103;SDS011;32853;52.164;5.400;2023-01-20T13:12:36;23.17;;;10.10;;
47103;SDS011;32853;52.164;5.400;2023-01-20T13:20:37;24.63;;;10.82;;
47103;SDS011;32853;52.164;5.400;2023-01-20T13:23:05;19.50;;;8.85;;
47103;SDS011;32853;52.164;5.400;2023-01-20T13:25:34;28.27;;;10.45;;
47103;SDS011;32853;52.164;5.400;2023-01-20T13:28:00;19.88;;;8.45;;
47103;SDS011;32853;52.164;5.400;2023-01-20T13:33:04;27.75;;;9.40;;
47103;SDS011;32853;52.164;5.400;2023-01-20T13:35:40;17.65;;;9.05;;
47103;SDS011;32853;52.164;5.400;2023-01-20T13:41:05;20.50;;;8.80;;
47103;SDS011;32853;52.164;5.400;2023-01-20T13:43:33;19.08;;;8.25;;
47103;SDS011;32853;52.164;5.400;2023-01-20T13:51:48;15.82;;;7.78;;
47103;SDS011;32853;52.164;5.400;2023-01-20T13:59:56;20.13;;;7.32;;
47103;SDS011;32853;52.164;5.400;2023-01-20T14:02:25;16.95;;;7.70;;
47103;SDS011;32853;52.164;5.400;2023-01-20T14:04:51;18.98;;;8.45;;
47103;SDS011;32853;52.164;5.400;2023-01-20T14:07:26;19.35;;;7.93;;
47103;SDS011;32853;52.164;5.400;2023-01-20T14:09:55;20.20;;;8.52;;
47103;SDS011;32853;52.164;5.400;2023-01-20T14:12:22;21.15;;;8.85;;
47103;SDS011;32853;52.164;5.400;2023-01-20T14:14:59;16.30;;;7.75;;
47103;SDS011;32853;52.164;5.400;2023-01-20T14:17:41;19.77;;;8.50;;
47103;SDS011;32853;52.164;5.400;2023-01-20T14:20:20;21.83;;;8.77;;
47103;SDS011;32853;52.164;5.400;2023-01-20T14:22:47;18.77;;;8.32;;
47103;SDS011;32853;52.164;5.400;2023-01-20T14:25:22;20.23;;;9.35;;
47103;SDS011;32853;52.164;5.400;2023-01-20T14:30:29;21.38;;;8.88;;
47103;SDS011;32853;52.164;5.400;2023-01-20T14:32:58;20.42;;;8.07;;
47103;SDS011;32853;52.164;5.400;2023-01-20T14:35:31;19.95;;;8.70;;
47103;SDS011;32853;52.164;5.400;2023-01-20T14:38:03;19.45;;;8.98;;
47103;SDS011;32853;52.164;5.400;2023-01-20T14:40:33;26.60;;;9.27;;
47103;SDS011;32853;52.164;5.400;2023-01-20T14:43:00;14.70;;;7.63;;
47103;SDS011;32853;52.164;5.400;2023-01-20T14:45:26;17.50;;;7.82;;
47103;SDS011;32853;52.164;5.400;2023-01-20T14:47:55;17.42;;;8.30;;
47103;SDS011;32853;52.164;5.400;2023-01-20T14:50:23;15.20;;;7.25;;
47103;SDS011;32853;52.164;5.400;2023-01-20T14:52:49;16.63;;;7.82;;
47103;SDS011;32853;52.164;5.400;2023-01-20T14:56:18;17.60;;;7.72;;
47103;SDS011;32853;52.164;5.400;2023-01-20T14:58:26;17.60;;;7.82;;
47103;SDS011;32853;52.164;5.400;2023-01-20T15:00:54;23.67;;;8.40;;
47103;SDS011;32853;52.164;5.400;2023-01-20T15:03:26;17.83;;;7.22;;
47103;SDS011;32853;52.164;5.400;2023-01-20T15:16:57;15.45;;;7.50;;
47103;SDS011;32853;52.164;5.400;2023-01-20T15:19:32;17.23;;;8.02;;
47103;SDS011;32853;52.164;5.400;2023-01-20T15:27:31;16.98;;;8.93;;
47103;SDS011;32853;52.164;5.400;2023-01-20T15:30:15;17.85;;;8.30;;
47103;SDS011;32853;52.164;5.400;2023-01-20T15:35:14;16.67;;;7.78;;
47103;SDS011;32853;52.164;5.400;2023-01-20T15:37:40;18.25;;;8.43;;
47103;SDS011;32853;52.164;5.400;2023-01-20T15:40:17;14.65;;;8.40;;
47103;SDS011;32853;52.164;5.400;2023-01-20T15:42:46;18.73;;;8.35;;
47103;SDS011;32853;52.164;5.400;2023-01-20T15:48:19;15.25;;;8.07;;
47103;SDS011;32853;52.164;5.400;2023-01-20T15:50:48;15.82;;;8.07;;
47103;SDS011;32853;52.164;5.400;2023-01-20T15:56:35;16.27;;;7.53;;
47103;SDS011;32853;52.164;5.400;2023-01-20T15:58:57;15.25;;;6.95;;
47103;SDS011;32853;52.164;5.400;2023-01-20T16:01:29;18.55;;;7.80;;
47103;SDS011;32853;52.164;5.400;2023-01-20T16:03:55;12.85;;;7.20;;
47103;SDS011;32853;52.164;5.400;2023-01-20T16:12:11;12.52;;;6.57;;
47103;SDS011;32853;52.164;5.400;2023-01-20T16:14:46;18.02;;;7.50;;
47103;SDS011;32853;52.164;5.400;2023-01-20T16:17:18;15.45;;;6.90;;
47103;SDS011;32853;52.164;5.400;2023-01-20T16:19:46;16.23;;;7.07;;
47103;SDS011;32853;52.164;5.400;2023-01-20T16:22:13;16.67;;;7.38;;
47103;SDS011;32853;52.164;5.400;2023-01-20T16:24:41;16.58;;;7.38;;
47103;SDS011;32853;52.164;5.400;2023-01-20T16:27:13;15.20;;;7.13;;
47103;SDS011;32853;52.164;5.400;2023-01-20T16:29:42;15.10;;;8.30;;
47103;SDS011;32853;52.164;5.400;2023-01-20T16:32:15;13.00;;;6.85;;
47103;SDS011;32853;52.164;5.400;2023-01-20T16:34:56;13.20;;;6.95;;
47103;SDS011;32853;52.164;5.400;2023-01-20T16:37:21;10.60;;;6.60;;
47103;SDS011;32853;52.164;5.400;2023-01-20T16:39:52;13.80;;;6.45;;
47103;SDS011;32853;52.164;5.400;2023-01-20T16:42:17;18.08;;;8.02;;
47103;SDS011;32853;52.164;5.400;2023-01-20T16:44:43;29.10;;;15.93;;
47103;SDS011;32853;52.164;5.400;2023-01-20T16:47:08;14.07;;;6.85;;
47103;SDS011;32853;52.164;5.400;2023-01-20T16:52:14;13.00;;;6.60;;
47103;SDS011;32853;52.164;5.400;2023-01-20T16:54:39;17.38;;;8.77;;
47103;SDS011;32853;52.164;5.400;2023-01-20T16:57:11;14.98;;;7.80;;
47103;SDS011;32853;52.164;5.400;2023-01-20T16:59:40;15.68;;;7.15;;
47103;SDS011;32853;52.164;5.400;2023-01-20T17:02:16;14.85;;;7.68;;
47103;SDS011;32853;52.164;5.400;2023-01-20T17:04:42;15.48;;;7.18;;
47103;SDS011;32853;52.164;5.400;2023-01-20T17:07:07;13.02;;;7.32;;
47103;SDS011;32853;52.164;5.400;2023-01-20T17:09:33;16.70;;;6.60;;
47103;SDS011;32853;52.164;5.400;2023-01-20T17:11:58;16.13;;;8.23;;
47103;SDS011;32853;52.164;5.400;2023-01-20T17:14:23;16.88;;;7.43;;
47103;SDS011;32853;52.164;5.400;2023-01-20T17:16:49;16.25;;;7.55;;
47103;SDS011;32853;52.164;5.400;2023-01-20T17:19:14;14.40;;;6.75;;
47103;SDS011;32853;52.164;5.400;2023-01-20T17:21:39;20.08;;;7.55;;
47103;SDS011;32853;52.164;5.400;2023-01-20T17:24:05;17.33;;;9.52;;
47103;SDS011;32853;52.164;5.400;2023-01-20T17:26:31;18.73;;;8.80;;
47103;SDS011;32853;52.164;5.400;2023-01-20T17:29:01;17.25;;;8.98;;
47103;SDS011;32853;52.164;5.400;2023-01-20T17:31:28;24.40;;;8.90;;
47103;SDS011;32853;52.164;5.400;2023-01-20T17:33:55;19.27;;;9.65;;
47103;SDS011;32853;52.164;5.400;2023-01-20T17:36:21;17.77;;;8.75;;
47103;SDS011;32853;52.164;5.400;2023-01-20T17:38:46;19.60;;;9.70;;
47103;SDS011;32853;52.164;5.400;2023-01-20T17:41:12;28.05;;;12.18;;
47103;SDS011;32853;52.164;5.400;2023-01-20T17:46:24;25.33;;;11.55;;
47103;SDS011;32853;52.164;5.400;2023-01-20T17:49:00;21.77;;;9.73;;
47103;SDS011;32853;52.164;5.400;2023-01-20T17:51:28;21.27;;;10.40;;
47103;SDS011;32853;52.164;5.400;2023-01-20T17:53:55;27.15;;;11.10;;
47103;SDS011;32853;52.164;5.400;2023-01-20T17:56:21;25.38;;;11.43;;
47103;SDS011;32853;52.164;5.400;2023-01-20T17:58:47;31.65;;;11.32;;
47103;SDS011;32853;52.164;5.400;2023-01-20T18:01:22;28.80;;;11.57;;
47103;SDS011;32853;52.164;5.400;2023-01-20T18:03:50;34.97;;;11.82;;
47103;SDS011;32853;52.164;5.400;2023-01-20T18:06:17;28.15;;;11.23;;
47103;SDS011;32853;52.164;5.400;2023-01-20T18:08:48;22.25;;;11.52;;
47103;SDS011;32853;52.164;5.400;2023-01-20T18:11:15;25.40;;;10.65;;
47103;SDS011;32853;52.164;5.400;2023-01-20T18:13:44;29.52;;;12.52;;
47103;SDS011;32853;52.164;5.400;2023-01-20T18:16:11;30.67;;;12.05;;
47103;SDS011;32853;52.164;5.400;2023-01-20T18:21:12;31.35;;;12.23;;
47103;SDS011;32853;52.164;5.400;2023-01-20T18:23:43;30.60;;;12.75;;
47103;SDS011;32853;52.164;5.400;2023-01-20T18:26:13;33.25;;;12.57;;
47103;SDS011;32853;52.164;5.400;2023-01-20T18:28:40;34.70;;;13.30;;
47103;SDS011;32853;52.164;5.400;2023-01-20T18:31:10;31.30;;;12.40;;
47103;SDS011;32853;52.164;5.400;2023-01-20T18:33:39;32.00;;;13.20;;
47103;SDS011;32853;52.164;5.400;2023-01-20T18:36:09;28.45;;;12.32;;
47103;SDS011;32853;52.164;5.400;2023-01-20T18:38:40;33.38;;;13.57;;
47103;SDS011;32853;52.164;5.400;2023-01-20T18:41:18;32.72;;;13.57;;
47103;SDS011;32853;52.164;5.400;2023-01-20T18:46:23;34.25;;;11.48;;
47103;SDS011;32853;52.164;5.400;2023-01-20T18:48:50;47.45;;;13.38;;
47103;SDS011;32853;52.164;5.400;2023-01-20T18:51:17;37.03;;;13.15;;
47103;SDS011;32853;52.164;5.400;2023-01-20T18:53:45;32.33;;;13.57;;
47103;SDS011;32853;52.164;5.400;2023-01-20T18:56:12;31.77;;;13.38;;